sensor_id;sensor_type;location;lat;lon;timestamp;P1;durP1;ratioP1;P2;durP2;ratioP2
69748;SDS011;57019;52.354;6.584;2022-10-23T00:00:19;5.43;;;1.90;;
69748;SDS011;57019;52.354;6.584;2022-10-23T00:02:50;6.00;;;1.80;;
69748;SDS011;57019;52.354;6.584;2022-10-23T00:05:16;5.57;;;1.80;;
69748;SDS011;57019;52.354;6.584;2022-10-23T00:07:41;5.87;;;1.90;;
69748;SDS011;57019;52.354;6.584;2022-10-23T00:10:08;5.37;;;1.90;;
69748;SDS011;57019;52.354;6.584;2022-10-23T00:12:34;5.55;;;1.90;;
69748;SDS011;57019;52.354;6.584;2022-10-23T00:14:59;5.80;;;1.67;;
69748;SDS011;57019;52.354;6.584;2022-10-23T00:17:25;6.60;;;1.77;;
69748;SDS011;57019;52.354;6.584;2022-10-23T00:19:50;7.10;;;2.00;;
69748;SDS011;57019;52.354;6.584;2022-10-23T00:22:15;6.80;;;2.07;;
69748;SDS011;57019;52.354;6.584;2022-10-23T00:24:41;6.83;;;2.00;;
69748;SDS011;57019;52.354;6.584;2022-10-23T00:27:06;6.80;;;1.90;;
69748;SDS011;57019;52.354;6.584;2022-10-23T00:29:32;6.00;;;1.90;;
69748;SDS011;57019;52.354;6.584;2022-10-23T00:31:57;5.83;;;1.90;;
69748;SDS011;57019;52.354;6.584;2022-10-23T00:34:22;5.20;;;1.70;;
69748;SDS011;57019;52.354;6.584;2022-10-23T00:36:47;5.80;;;1.80;;
69748;SDS011;57019;52.354;6.584;2022-10-23T00:39:13;6.57;;;1.90;;
69748;SDS011;57019;52.354;6.584;2022-10-23T00:41:38;6.57;;;1.80;;
69748;SDS011;57019;52.354;6.584;2022-10-23T00:45:10;5.27;;;1.70;;
69748;SDS011;57019;52.354;6.584;2022-10-23T00:46:55;6.22;;;1.88;;
69748;SDS011;57019;52.354;6.584;2022-10-23T00:49:21;5.83;;;1.70;;
69748;SDS011;57019;52.354;6.584;2022-10-23T00:51:48;5.97;;;1.92;;
69748;SDS011;57019;52.354;6.584;2022-10-23T00:54:17;5.70;;;1.90;;
69748;SDS011;57019;52.354;6.584;2022-10-23T00:56:45;7.13;;;2.03;;
69748;SDS011;57019;52.354;6.584;2022-10-23T00:59:12;6.50;;;1.93;;
69748;SDS011;57019;52.354;6.584;2022-10-23T01:01:37;5.65;;;2.00;;
69748;SDS011;57019;52.354;6.584;2022-10-23T01:04:03;5.45;;;1.90;;
69748;SDS011;57019;52.354;6.584;2022-10-23T01:06:34;5.93;;;1.85;;
69748;SDS011;57019;52.354;6.584;2022-10-23T01:11:52;6.28;;;1.70;;
69748;SDS011;57019;52.354;6.584;2022-10-23T01:17:38;6.10;;;1.70;;
69748;SDS011;57019;52.354;6.584;2022-10-23T01:28:10;7.63;;;2.08;;
69748;SDS011;57019;52.354;6.584;2022-10-23T01:30:44;5.28;;;1.75;;
69748;SDS011;57019;52.354;6.584;2022-10-23T01:33:10;5.97;;;1.77;;
69748;SDS011;57019;52.354;6.584;2022-10-23T01:35:48;5.78;;;1.90;;
69748;SDS011;57019;52.354;6.584;2022-10-23T01:38:18;5.47;;;1.70;;
69748;SDS011;57019;52.354;6.584;2022-10-23T01:40:51;6.70;;;1.73;;
69748;SDS011;57019;52.354;6.584;2022-10-23T01:43:30;5.70;;;1.90;;
69748;SDS011;57019;52.354;6.584;2022-10-23T01:46:02;5.80;;;1.80;;
69748;SDS011;57019;52.354;6.584;2022-10-23T01:48:31;6.30;;;2.10;;
69748;SDS011;57019;52.354;6.584;2022-10-23T01:50:59;5.20;;;1.80;;
69748;SDS011;57019;52.354;6.584;2022-10-23T01:53:29;5.43;;;1.70;;
69748;SDS011;57019;52.354;6.584;2022-10-23T01:55:58;6.63;;;1.60;;
69748;SDS011;57019;52.354;6.584;2022-10-23T01:58:26;5.72;;;1.70;;
69748;SDS011;57019;52.354;6.584;2022-10-23T02:00:55;5.50;;;1.77;;
69748;SDS011;57019;52.354;6.584;2022-10-23T02:03:23;5.83;;;1.83;;
69748;SDS011;57019;52.354;6.584;2022-10-23T02:05:50;4.93;;;1.50;;
69748;SDS011;57019;52.354;6.584;2022-10-23T02:08:16;5.55;;;1.92;;
69748;SDS011;57019;52.354;6.584;2022-10-23T02:16:05;6.43;;;1.90;;
69748;SDS011;57019;52.354;6.584;2022-10-23T02:19:05;5.78;;;1.85;;
69748;SDS011;57019;52.354;6.584;2022-10-23T02:24:20;5.55;;;2.00;;
69748;SDS011;57019;52.354;6.584;2022-10-23T02:26:56;6.22;;;1.73;;
69748;SDS011;57019;52.354;6.584;2022-10-23T02:32:02;5.88;;;1.70;;
69748;SDS011;57019;52.354;6.584;2022-10-23T02:34:30;5.60;;;1.70;;
69748;SDS011;57019;52.354;6.584;2022-10-23T02:36:55;6.23;;;1.70;;
69748;SDS011;57019;52.354;6.584;2022-10-23T02:39:21;5.70;;;1.70;;
69748;SDS011;57019;52.354;6.584;2022-10-23T02:44:35;5.57;;;1.70;;
69748;SDS011;57019;52.354;6.584;2022-10-23T02:52:33;5.37;;;1.80;;
69748;SDS011;57019;52.354;6.584;2022-10-23T02:57:39;5.45;;;1.65;;
69748;SDS011;57019;52.354;6.584;2022-10-23T03:00:16;6.45;;;2.00;;
69748;SDS011;57019;52.354;6.584;2022-10-23T03:05:41;5.20;;;1.80;;
69748;SDS011;57019;52.354;6.584;2022-10-23T03:08:09;6.22;;;1.83;;
69748;SDS011;57019;52.354;6.584;2022-10-23T03:10:36;6.25;;;1.90;;
69748;SDS011;57019;52.354;6.584;2022-10-23T03:13:01;5.33;;;1.60;;
69748;SDS011;57019;52.354;6.584;2022-10-23T03:15:26;5.17;;;1.70;;
69748;SDS011;57019;52.354;6.584;2022-10-23T03:17:52;5.27;;;1.67;;
69748;SDS011;57019;52.354;6.584;2022-10-23T03:20:17;5.80;;;1.80;;
69748;SDS011;57019;52.354;6.584;2022-10-23T03:22:43;6.63;;;1.90;;
69748;SDS011;57019;52.354;6.584;2022-10-23T03:25:08;6.20;;;1.70;;
69748;SDS011;57019;52.354;6.584;2022-10-23T03:27:34;5.43;;;1.75;;
69748;SDS011;57019;52.354;6.584;2022-10-23T03:30:00;5.30;;;1.80;;
69748;SDS011;57019;52.354;6.584;2022-10-23T03:32:26;5.20;;;1.77;;
69748;SDS011;57019;52.354;6.584;2022-10-23T03:34:52;5.67;;;1.70;;
69748;SDS011;57019;52.354;6.584;2022-10-23T03:37:17;6.28;;;1.65;;
69748;SDS011;57019;52.354;6.584;2022-10-23T03:39:42;5.80;;;2.00;;
69748;SDS011;57019;52.354;6.584;2022-10-23T03:42:08;5.73;;;1.80;;
69748;SDS011;57019;52.354;6.584;2022-10-23T03:44:33;5.40;;;1.90;;
69748;SDS011;57019;52.354;6.584;2022-10-23T03:46:59;6.00;;;1.90;;
69748;SDS011;57019;52.354;6.584;2022-10-23T03:49:24;5.00;;;1.60;;
69748;SDS011;57019;52.354;6.584;2022-10-23T03:51:49;5.30;;;1.60;;
69748;SDS011;57019;52.354;6.584;2022-10-23T03:54:24;6.38;;;2.10;;
69748;SDS011;57019;52.354;6.584;2022-10-23T03:56:51;4.93;;;1.48;;
69748;SDS011;57019;52.354;6.584;2022-10-23T03:59:17;6.17;;;1.60;;
69748;SDS011;57019;52.354;6.584;2022-10-23T04:01:43;4.60;;;1.38;;
69748;SDS011;57019;52.354;6.584;2022-10-23T04:04:09;5.63;;;1.70;;
69748;SDS011;57019;52.354;6.584;2022-10-23T04:06:35;5.30;;;1.70;;
69748;SDS011;57019;52.354;6.584;2022-10-23T04:09:00;5.40;;;1.70;;
69748;SDS011;57019;52.354;6.584;2022-10-23T04:11:25;5.60;;;1.57;;
69748;SDS011;57019;52.354;6.584;2022-10-23T04:13:51;5.50;;;1.70;;
69748;SDS011;57019;52.354;6.584;2022-10-23T04:16:16;5.10;;;1.73;;
69748;SDS011;57019;52.354;6.584;2022-10-23T04:18:42;5.17;;;1.60;;
69748;SDS011;57019;52.354;6.584;2022-10-23T04:21:07;5.00;;;1.57;;
69748;SDS011;57019;52.354;6.584;2022-10-23T04:23:33;5.00;;;1.57;;
69748;SDS011;57019;52.354;6.584;2022-10-23T04:25:59;5.20;;;1.70;;
69748;SDS011;57019;52.354;6.584;2022-10-23T04:28:24;6.27;;;1.70;;
69748;SDS011;57019;52.354;6.584;2022-10-23T04:30:50;5.43;;;1.53;;
69748;SDS011;57019;52.354;6.584;2022-10-23T04:33:16;5.80;;;1.65;;
69748;SDS011;57019;52.354;6.584;2022-10-23T04:35:42;5.60;;;1.73;;
69748;SDS011;57019;52.354;6.584;2022-10-23T04:38:07;5.30;;;1.60;;
69748;SDS011;57019;52.354;6.584;2022-10-23T04:40:32;5.77;;;1.67;;
69748;SDS011;57019;52.354;6.584;2022-10-23T04:42:58;5.47;;;1.70;;
69748;SDS011;57019;52.354;6.584;2022-10-23T04:45:23;5.03;;;1.60;;
69748;SDS011;57019;52.354;6.584;2022-10-23T04:47:48;5.20;;;1.50;;
69748;SDS011;57019;52.354;6.584;2022-10-23T04:50:14;5.50;;;1.80;;
69748;SDS011;57019;52.354;6.584;2022-10-23T04:52:39;6.13;;;1.60;;
69748;SDS011;57019;52.354;6.584;2022-10-23T04:55:05;4.87;;;1.40;;
69748;SDS011;57019;52.354;6.584;2022-10-23T04:57:32;6.45;;;1.70;;
69748;SDS011;57019;52.354;6.584;2022-10-23T04:59:57;5.60;;;1.77;;
69748;SDS011;57019;52.354;6.584;2022-10-23T05:02:22;4.67;;;1.50;;
69748;SDS011;57019;52.354;6.584;2022-10-23T05:04:48;5.93;;;1.60;;
69748;SDS011;57019;52.354;6.584;2022-10-23T05:07:14;5.60;;;1.67;;
69748;SDS011;57019;52.354;6.584;2022-10-23T05:09:40;6.18;;;1.60;;
69748;SDS011;57019;52.354;6.584;2022-10-23T05:12:05;5.30;;;1.67;;
69748;SDS011;57019;52.354;6.584;2022-10-23T05:14:30;6.13;;;1.50;;
69748;SDS011;57019;52.354;6.584;2022-10-23T05:19:28;5.78;;;1.80;;
69748;SDS011;57019;52.354;6.584;2022-10-23T05:21:58;4.90;;;1.67;;
69748;SDS011;57019;52.354;6.584;2022-10-23T05:24:24;5.60;;;1.90;;
69748;SDS011;57019;52.354;6.584;2022-10-23T05:26:50;5.53;;;1.63;;
69748;SDS011;57019;52.354;6.584;2022-10-23T05:29:20;5.55;;;1.70;;
69748;SDS011;57019;52.354;6.584;2022-10-23T05:31:46;4.60;;;1.60;;
69748;SDS011;57019;52.354;6.584;2022-10-23T05:34:14;5.82;;;1.80;;
69748;SDS011;57019;52.354;6.584;2022-10-23T05:36:43;5.72;;;1.85;;
69748;SDS011;57019;52.354;6.584;2022-10-23T05:39:09;4.87;;;1.37;;
69748;SDS011;57019;52.354;6.584;2022-10-23T05:41:34;5.13;;;1.50;;
69748;SDS011;57019;52.354;6.584;2022-10-23T05:43:59;5.67;;;1.70;;
69748;SDS011;57019;52.354;6.584;2022-10-23T05:46:25;5.33;;;1.63;;
69748;SDS011;57019;52.354;6.584;2022-10-23T05:48:51;5.60;;;1.60;;
69748;SDS011;57019;52.354;6.584;2022-10-23T05:51:17;5.07;;;1.47;;
69748;SDS011;57019;52.354;6.584;2022-10-23T05:53:46;5.43;;;1.48;;
69748;SDS011;57019;52.354;6.584;2022-10-23T05:56:12;5.67;;;1.70;;
69748;SDS011;57019;52.354;6.584;2022-10-23T05:58:37;5.30;;;1.60;;
69748;SDS011;57019;52.354;6.584;2022-10-23T06:01:04;6.00;;;1.50;;
69748;SDS011;57019;52.354;6.584;2022-10-23T06:03:34;5.40;;;1.50;;
69748;SDS011;57019;52.354;6.584;2022-10-23T06:06:00;5.15;;;1.35;;
69748;SDS011;57019;52.354;6.584;2022-10-23T06:08:25;4.60;;;1.37;;
69748;SDS011;57019;52.354;6.584;2022-10-23T06:10:51;6.10;;;1.50;;
69748;SDS011;57019;52.354;6.584;2022-10-23T06:13:16;4.83;;;1.40;;
69748;SDS011;57019;52.354;6.584;2022-10-23T06:15:42;5.13;;;1.37;;
69748;SDS011;57019;52.354;6.584;2022-10-23T06:18:07;5.00;;;1.40;;
69748;SDS011;57019;52.354;6.584;2022-10-23T06:20:36;5.93;;;1.40;;
69748;SDS011;57019;52.354;6.584;2022-10-23T06:23:02;4.05;;;1.20;;
69748;SDS011;57019;52.354;6.584;2022-10-23T06:25:29;4.88;;;1.30;;
69748;SDS011;57019;52.354;6.584;2022-10-23T06:27:54;4.93;;;1.40;;
69748;SDS011;57019;52.354;6.584;2022-10-23T06:30:19;5.97;;;1.50;;
69748;SDS011;57019;52.354;6.584;2022-10-23T06:32:45;4.80;;;1.50;;
69748;SDS011;57019;52.354;6.584;2022-10-23T06:35:10;4.93;;;1.40;;
69748;SDS011;57019;52.354;6.584;2022-10-23T06:37:35;5.25;;;1.48;;
69748;SDS011;57019;52.354;6.584;2022-10-23T06:40:01;5.03;;;1.40;;
69748;SDS011;57019;52.354;6.584;2022-10-23T06:42:26;5.67;;;1.40;;
69748;SDS011;57019;52.354;6.584;2022-10-23T06:44:53;5.10;;;1.58;;
69748;SDS011;57019;52.354;6.584;2022-10-23T06:47:18;5.40;;;1.60;;
69748;SDS011;57019;52.354;6.584;2022-10-23T06:49:43;5.23;;;1.43;;
69748;SDS011;57019;52.354;6.584;2022-10-23T06:52:08;5.27;;;1.63;;
69748;SDS011;57019;52.354;6.584;2022-10-23T06:54:34;5.20;;;1.73;;
69748;SDS011;57019;52.354;6.584;2022-10-23T06:56:59;5.90;;;1.40;;
69748;SDS011;57019;52.354;6.584;2022-10-23T06:59:24;4.77;;;1.40;;
69748;SDS011;57019;52.354;6.584;2022-10-23T07:01:50;5.37;;;1.50;;
69748;SDS011;57019;52.354;6.584;2022-10-23T07:04:15;4.73;;;1.30;;
69748;SDS011;57019;52.354;6.584;2022-10-23T07:06:41;4.95;;;1.40;;
69748;SDS011;57019;52.354;6.584;2022-10-23T07:09:07;5.20;;;1.30;;
69748;SDS011;57019;52.354;6.584;2022-10-23T07:11:32;4.90;;;1.30;;
69748;SDS011;57019;52.354;6.584;2022-10-23T07:13:58;6.23;;;1.50;;
69748;SDS011;57019;52.354;6.584;2022-10-23T07:16:23;4.80;;;1.30;;
69748;SDS011;57019;52.354;6.584;2022-10-23T07:18:52;4.80;;;1.43;;
69748;SDS011;57019;52.354;6.584;2022-10-23T07:21:32;4.25;;;1.38;;
69748;SDS011;57019;52.354;6.584;2022-10-23T07:23:59;4.70;;;1.40;;
69748;SDS011;57019;52.354;6.584;2022-10-23T07:26:25;4.53;;;1.40;;
69748;SDS011;57019;52.354;6.584;2022-10-23T07:28:50;4.57;;;1.40;;
69748;SDS011;57019;52.354;6.584;2022-10-23T07:31:19;4.75;;;1.50;;
69748;SDS011;57019;52.354;6.584;2022-10-23T07:33:48;4.95;;;1.30;;
69748;SDS011;57019;52.354;6.584;2022-10-23T07:36:14;4.63;;;1.33;;
69748;SDS011;57019;52.354;6.584;2022-10-23T07:38:39;4.97;;;1.40;;
69748;SDS011;57019;52.354;6.584;2022-10-23T07:41:05;4.50;;;1.35;;
69748;SDS011;57019;52.354;6.584;2022-10-23T07:43:31;5.10;;;1.37;;
69748;SDS011;57019;52.354;6.584;2022-10-23T07:45:57;5.30;;;1.70;;
69748;SDS011;57019;52.354;6.584;2022-10-23T07:48:23;4.77;;;1.30;;
69748;SDS011;57019;52.354;6.584;2022-10-23T07:50:49;3.97;;;1.13;;
69748;SDS011;57019;52.354;6.584;2022-10-23T07:53:19;5.03;;;1.40;;
69748;SDS011;57019;52.354;6.584;2022-10-23T07:55:55;4.90;;;1.37;;
69748;SDS011;57019;52.354;6.584;2022-10-23T07:58:23;5.50;;;1.50;;
69748;SDS011;57019;52.354;6.584;2022-10-23T08:00:51;4.95;;;1.48;;
69748;SDS011;57019;52.354;6.584;2022-10-23T08:03:20;4.97;;;1.67;;
69748;SDS011;57019;52.354;6.584;2022-10-23T08:05:45;4.60;;;1.43;;
69748;SDS011;57019;52.354;6.584;2022-10-23T08:08:10;4.80;;;1.30;;
69748;SDS011;57019;52.354;6.584;2022-10-23T08:10:36;4.72;;;1.50;;
69748;SDS011;57019;52.354;6.584;2022-10-23T08:13:01;5.73;;;1.53;;
69748;SDS011;57019;52.354;6.584;2022-10-23T08:15:27;5.00;;;1.30;;
69748;SDS011;57019;52.354;6.584;2022-10-23T08:17:52;4.33;;;1.23;;
69748;SDS011;57019;52.354;6.584;2022-10-23T08:20:17;4.20;;;1.20;;
69748;SDS011;57019;52.354;6.584;2022-10-23T08:22:43;4.95;;;1.40;;
69748;SDS011;57019;52.354;6.584;2022-10-23T08:25:08;5.73;;;1.50;;
69748;SDS011;57019;52.354;6.584;2022-10-23T08:27:34;4.90;;;1.40;;
69748;SDS011;57019;52.354;6.584;2022-10-23T08:29:59;5.43;;;1.30;;
69748;SDS011;57019;52.354;6.584;2022-10-23T08:32:27;4.55;;;1.40;;
69748;SDS011;57019;52.354;6.584;2022-10-23T08:34:54;8.03;;;1.60;;
69748;SDS011;57019;52.354;6.584;2022-10-23T08:37:19;5.45;;;1.70;;
69748;SDS011;57019;52.354;6.584;2022-10-23T08:39:44;4.80;;;1.67;;
69748;SDS011;57019;52.354;6.584;2022-10-23T08:42:21;4.93;;;1.50;;
69748;SDS011;57019;52.354;6.584;2022-10-23T08:44:54;4.90;;;1.40;;
69748;SDS011;57019;52.354;6.584;2022-10-23T08:47:41;4.33;;;1.33;;
69748;SDS011;57019;52.354;6.584;2022-10-23T08:50:15;4.85;;;1.48;;
69748;SDS011;57019;52.354;6.584;2022-10-23T08:52:51;11.07;;;1.60;;
69748;SDS011;57019;52.354;6.584;2022-10-23T08:55:25;5.38;;;1.40;;
69748;SDS011;57019;52.354;6.584;2022-10-23T08:58:03;4.72;;;1.48;;
69748;SDS011;57019;52.354;6.584;2022-10-23T09:00:31;5.50;;;1.50;;
69748;SDS011;57019;52.354;6.584;2022-10-23T09:02:59;5.13;;;1.50;;
69748;SDS011;57019;52.354;6.584;2022-10-23T09:05:31;4.50;;;1.50;;
69748;SDS011;57019;52.354;6.584;2022-10-23T09:11:54;5.32;;;1.70;;
69748;SDS011;57019;52.354;6.584;2022-10-23T09:22:40;8.57;;;1.60;;
69748;SDS011;57019;52.354;6.584;2022-10-23T09:25:07;9.52;;;1.58;;
69748;SDS011;57019;52.354;6.584;2022-10-23T09:27:34;5.97;;;1.70;;
69748;SDS011;57019;52.354;6.584;2022-10-23T09:30:00;5.95;;;1.70;;
69748;SDS011;57019;52.354;6.584;2022-10-23T09:32:32;8.70;;;1.60;;
69748;SDS011;57019;52.354;6.584;2022-10-23T09:34:59;5.18;;;1.50;;
69748;SDS011;57019;52.354;6.584;2022-10-23T09:37:26;6.20;;;1.60;;
69748;SDS011;57019;52.354;6.584;2022-10-23T09:40:16;6.25;;;1.70;;
69748;SDS011;57019;52.354;6.584;2022-10-23T09:45:21;6.83;;;2.27;;
69748;SDS011;57019;52.354;6.584;2022-10-23T09:48:05;6.75;;;1.98;;
69748;SDS011;57019;52.354;6.584;2022-10-23T09:50:52;6.50;;;2.20;;
69748;SDS011;57019;52.354;6.584;2022-10-23T09:54:09;7.10;;;2.13;;
69748;SDS011;57019;52.354;6.584;2022-10-23T09:56:28;5.65;;;2.03;;
69748;SDS011;57019;52.354;6.584;2022-10-23T10:01:44;6.72;;;2.20;;
69748;SDS011;57019;52.354;6.584;2022-10-23T10:04:10;5.47;;;1.90;;
69748;SDS011;57019;52.354;6.584;2022-10-23T10:06:36;8.03;;;2.10;;
69748;SDS011;57019;52.354;6.584;2022-10-23T10:09:04;7.03;;;1.90;;
69748;SDS011;57019;52.354;6.584;2022-10-23T10:14:24;6.95;;;1.75;;
69748;SDS011;57019;52.354;6.584;2022-10-23T10:17:13;6.60;;;1.92;;
69748;SDS011;57019;52.354;6.584;2022-10-23T10:23:13;6.53;;;2.00;;
69748;SDS011;57019;52.354;6.584;2022-10-23T10:26:02;6.22;;;2.00;;
69748;SDS011;57019;52.354;6.584;2022-10-23T10:36:48;6.03;;;1.80;;
69748;SDS011;57019;52.354;6.584;2022-10-23T10:39:26;7.60;;;1.90;;
69748;SDS011;57019;52.354;6.584;2022-10-23T10:42:07;5.90;;;1.80;;
69748;SDS011;57019;52.354;6.584;2022-10-23T10:48:12;5.53;;;1.87;;
69748;SDS011;57019;52.354;6.584;2022-10-23T10:50:29;5.53;;;1.70;;
69748;SDS011;57019;52.354;6.584;2022-10-23T10:55:45;7.03;;;1.75;;
69748;SDS011;57019;52.354;6.584;2022-10-23T11:01:05;7.00;;;1.80;;
69748;SDS011;57019;52.354;6.584;2022-10-23T11:03:51;6.72;;;1.77;;
69748;SDS011;57019;52.354;6.584;2022-10-23T11:06:28;5.57;;;1.60;;
69748;SDS011;57019;52.354;6.584;2022-10-23T11:08:58;5.93;;;1.70;;
69748;SDS011;57019;52.354;6.584;2022-10-23T11:11:27;8.15;;;1.90;;
69748;SDS011;57019;52.354;6.584;2022-10-23T11:13:55;5.47;;;1.60;;
69748;SDS011;57019;52.354;6.584;2022-10-23T11:16:23;5.75;;;1.73;;
69748;SDS011;57019;52.354;6.584;2022-10-23T11:19:04;5.15;;;1.73;;
69748;SDS011;57019;52.354;6.584;2022-10-23T11:32:54;6.13;;;1.73;;
69748;SDS011;57019;52.354;6.584;2022-10-23T11:38:22;8.27;;;1.90;;
69748;SDS011;57019;52.354;6.584;2022-10-23T11:40:52;7.90;;;1.87;;
69748;SDS011;57019;52.354;6.584;2022-10-23T11:43:55;6.10;;;1.70;;
69748;SDS011;57019;52.354;6.584;2022-10-23T11:48:52;5.75;;;1.70;;
69748;SDS011;57019;52.354;6.584;2022-10-23T11:51:35;7.15;;;1.90;;
69748;SDS011;57019;52.354;6.584;2022-10-23T11:56:37;7.05;;;1.90;;
69748;SDS011;57019;52.354;6.584;2022-10-23T12:05:05;7.38;;;1.92;;
69748;SDS011;57019;52.354;6.584;2022-10-23T12:07:53;7.23;;;2.00;;
69748;SDS011;57019;52.354;6.584;2022-10-23T12:10:22;7.93;;;1.90;;
69748;SDS011;57019;52.354;6.584;2022-10-23T12:12:55;6.65;;;1.70;;
69748;SDS011;57019;52.354;6.584;2022-10-23T12:15:22;6.97;;;1.73;;
69748;SDS011;57019;52.354;6.584;2022-10-23T12:17:49;6.50;;;1.98;;
69748;SDS011;57019;52.354;6.584;2022-10-23T12:36:20;7.87;;;1.80;;
69748;SDS011;57019;52.354;6.584;2022-10-23T12:39:00;6.35;;;1.70;;
69748;SDS011;57019;52.354;6.584;2022-10-23T12:41:28;7.50;;;1.83;;
69748;SDS011;57019;52.354;6.584;2022-10-23T12:44:01;7.70;;;1.70;;
69748;SDS011;57019;52.354;6.584;2022-10-23T12:46:47;6.07;;;2.00;;
69748;SDS011;57019;52.354;6.584;2022-10-23T12:49:23;6.13;;;1.80;;
69748;SDS011;57019;52.354;6.584;2022-10-23T12:51:54;6.10;;;1.80;;
69748;SDS011;57019;52.354;6.584;2022-10-23T12:54:26;6.10;;;1.73;;
69748;SDS011;57019;52.354;6.584;2022-10-23T12:56:52;7.45;;;1.92;;
69748;SDS011;57019;52.354;6.584;2022-10-23T13:01:51;6.93;;;2.00;;
69748;SDS011;57019;52.354;6.584;2022-10-23T13:06:50;6.43;;;1.60;;
69748;SDS011;57019;52.354;6.584;2022-10-23T13:09:31;5.65;;;1.77;;
69748;SDS011;57019;52.354;6.584;2022-10-23T13:11:57;5.60;;;1.60;;
69748;SDS011;57019;52.354;6.584;2022-10-23T13:14:28;5.32;;;1.70;;
69748;SDS011;57019;52.354;6.584;2022-10-23T13:16:57;7.25;;;1.80;;
69748;SDS011;57019;52.354;6.584;2022-10-23T13:19:24;6.55;;;1.88;;
69748;SDS011;57019;52.354;6.584;2022-10-23T13:21:51;8.52;;;1.88;;
69748;SDS011;57019;52.354;6.584;2022-10-23T13:24:20;6.40;;;1.70;;
69748;SDS011;57019;52.354;6.584;2022-10-23T13:26:48;6.32;;;1.80;;
69748;SDS011;57019;52.354;6.584;2022-10-23T13:29:27;6.90;;;1.60;;
69748;SDS011;57019;52.354;6.584;2022-10-23T13:31:55;6.28;;;1.60;;
69748;SDS011;57019;52.354;6.584;2022-10-23T13:34:24;5.47;;;1.80;;
69748;SDS011;57019;52.354;6.584;2022-10-23T13:36:55;6.38;;;1.75;;
69748;SDS011;57019;52.354;6.584;2022-10-23T13:40:01;6.25;;;1.55;;
69748;SDS011;57019;52.354;6.584;2022-10-23T13:42:30;6.95;;;1.63;;
69748;SDS011;57019;52.354;6.584;2022-10-23T13:44:55;5.37;;;1.60;;
69748;SDS011;57019;52.354;6.584;2022-10-23T13:47:20;5.37;;;1.80;;
69748;SDS011;57019;52.354;6.584;2022-10-23T13:49:46;7.50;;;1.87;;
69748;SDS011;57019;52.354;6.584;2022-10-23T13:52:12;7.10;;;1.70;;
69748;SDS011;57019;52.354;6.584;2022-10-23T13:54:46;5.88;;;1.80;;
69748;SDS011;57019;52.354;6.584;2022-10-23T13:57:12;5.63;;;1.70;;
69748;SDS011;57019;52.354;6.584;2022-10-23T13:59:38;6.85;;;1.92;;
69748;SDS011;57019;52.354;6.584;2022-10-23T14:02:11;5.43;;;1.57;;
69748;SDS011;57019;52.354;6.584;2022-10-23T14:04:45;5.40;;;1.55;;
69748;SDS011;57019;52.354;6.584;2022-10-23T14:07:11;4.85;;;1.80;;
69748;SDS011;57019;52.354;6.584;2022-10-23T14:09:37;5.70;;;1.70;;
69748;SDS011;57019;52.354;6.584;2022-10-23T14:12:02;6.33;;;1.63;;
69748;SDS011;57019;52.354;6.584;2022-10-23T14:14:28;6.00;;;1.60;;
69748;SDS011;57019;52.354;6.584;2022-10-23T14:16:53;10.00;;;1.80;;
69748;SDS011;57019;52.354;6.584;2022-10-23T14:19:18;6.20;;;1.60;;
69748;SDS011;57019;52.354;6.584;2022-10-23T14:21:44;6.17;;;1.70;;
69748;SDS011;57019;52.354;6.584;2022-10-23T14:24:09;5.63;;;1.63;;
69748;SDS011;57019;52.354;6.584;2022-10-23T14:26:34;6.60;;;1.77;;
69748;SDS011;57019;52.354;6.584;2022-10-23T14:29:00;6.50;;;1.75;;
69748;SDS011;57019;52.354;6.584;2022-10-23T14:31:25;5.23;;;1.50;;
69748;SDS011;57019;52.354;6.584;2022-10-23T14:33:52;5.50;;;1.70;;
69748;SDS011;57019;52.354;6.584;2022-10-23T14:36:19;6.13;;;1.60;;
69748;SDS011;57019;52.354;6.584;2022-10-23T14:38:45;6.07;;;1.60;;
69748;SDS011;57019;52.354;6.584;2022-10-23T14:41:12;6.27;;;1.67;;
69748;SDS011;57019;52.354;6.584;2022-10-23T14:43:38;5.47;;;1.60;;
69748;SDS011;57019;52.354;6.584;2022-10-23T14:46:14;5.28;;;1.50;;
69748;SDS011;57019;52.354;6.584;2022-10-23T14:48:40;5.53;;;1.52;;
69748;SDS011;57019;52.354;6.584;2022-10-23T14:51:12;5.57;;;1.50;;
69748;SDS011;57019;52.354;6.584;2022-10-23T14:53:40;5.47;;;1.60;;
69748;SDS011;57019;52.354;6.584;2022-10-23T14:56:06;6.27;;;1.73;;
69748;SDS011;57019;52.354;6.584;2022-10-23T14:58:31;5.20;;;1.40;;
69748;SDS011;57019;52.354;6.584;2022-10-23T15:00:57;6.10;;;1.40;;
69748;SDS011;57019;52.354;6.584;2022-10-23T15:03:24;4.70;;;1.30;;
69748;SDS011;57019;52.354;6.584;2022-10-23T15:05:50;6.87;;;1.73;;
69748;SDS011;57019;52.354;6.584;2022-10-23T15:08:15;4.90;;;1.35;;
69748;SDS011;57019;52.354;6.584;2022-10-23T15:10:41;6.13;;;1.60;;
69748;SDS011;57019;52.354;6.584;2022-10-23T15:13:06;6.10;;;1.70;;
69748;SDS011;57019;52.354;6.584;2022-10-23T15:15:31;7.40;;;1.63;;
69748;SDS011;57019;52.354;6.584;2022-10-23T15:17:57;6.30;;;1.40;;
69748;SDS011;57019;52.354;6.584;2022-10-23T15:20:22;6.10;;;1.60;;
69748;SDS011;57019;52.354;6.584;2022-10-23T15:22:47;6.03;;;1.70;;
69748;SDS011;57019;52.354;6.584;2022-10-23T15:25:13;6.00;;;1.63;;
69748;SDS011;57019;52.354;6.584;2022-10-23T15:27:38;6.67;;;1.80;;
69748;SDS011;57019;52.354;6.584;2022-10-23T15:30:03;8.90;;;2.57;;
69748;SDS011;57019;52.354;6.584;2022-10-23T15:32:29;11.00;;;3.07;;
69748;SDS011;57019;52.354;6.584;2022-10-23T15:34:54;11.43;;;3.07;;
69748;SDS011;57019;52.354;6.584;2022-10-23T15:37:22;10.10;;;3.10;;
69748;SDS011;57019;52.354;6.584;2022-10-23T15:39:47;9.40;;;3.20;;
69748;SDS011;57019;52.354;6.584;2022-10-23T15:42:13;9.40;;;3.03;;
69748;SDS011;57019;52.354;6.584;2022-10-23T15:44:38;11.57;;;3.10;;
69748;SDS011;57019;52.354;6.584;2022-10-23T15:47:04;12.52;;;3.45;;
69748;SDS011;57019;52.354;6.584;2022-10-23T15:49:29;9.10;;;3.40;;
69748;SDS011;57019;52.354;6.584;2022-10-23T15:51:55;12.77;;;3.53;;
69748;SDS011;57019;52.354;6.584;2022-10-23T15:54:21;8.82;;;3.38;;
69748;SDS011;57019;52.354;6.584;2022-10-23T15:56:47;10.40;;;3.47;;
69748;SDS011;57019;52.354;6.584;2022-10-23T15:59:14;11.13;;;3.25;;
69748;SDS011;57019;52.354;6.584;2022-10-23T16:01:40;9.48;;;3.35;;
69748;SDS011;57019;52.354;6.584;2022-10-23T16:04:06;9.00;;;3.20;;
69748;SDS011;57019;52.354;6.584;2022-10-23T16:06:31;10.10;;;3.33;;
69748;SDS011;57019;52.354;6.584;2022-10-23T16:08:57;9.00;;;3.13;;
69748;SDS011;57019;52.354;6.584;2022-10-23T16:11:30;8.47;;;3.00;;
69748;SDS011;57019;52.354;6.584;2022-10-23T16:13:57;12.48;;;3.60;;
69748;SDS011;57019;52.354;6.584;2022-10-23T16:16:32;8.20;;;3.00;;
69748;SDS011;57019;52.354;6.584;2022-10-23T16:18:58;10.52;;;2.80;;
69748;SDS011;57019;52.354;6.584;2022-10-23T16:21:29;7.40;;;2.47;;
69748;SDS011;57019;52.354;6.584;2022-10-23T16:23:57;9.07;;;2.70;;
69748;SDS011;57019;52.354;6.584;2022-10-23T16:26:24;9.77;;;2.92;;
69748;SDS011;57019;52.354;6.584;2022-10-23T16:28:52;8.00;;;2.70;;
69748;SDS011;57019;52.354;6.584;2022-10-23T16:31:22;11.05;;;2.92;;
69748;SDS011;57019;52.354;6.584;2022-10-23T16:33:48;7.70;;;2.90;;
69748;SDS011;57019;52.354;6.584;2022-10-23T16:36:14;7.53;;;2.45;;
69748;SDS011;57019;52.354;6.584;2022-10-23T16:38:41;7.28;;;2.45;;
69748;SDS011;57019;52.354;6.584;2022-10-23T16:41:06;11.50;;;2.60;;
69748;SDS011;57019;52.354;6.584;2022-10-23T16:43:31;8.00;;;2.40;;
69748;SDS011;57019;52.354;6.584;2022-10-23T16:46:00;9.33;;;2.80;;
69748;SDS011;57019;52.354;6.584;2022-10-23T16:48:26;7.00;;;2.20;;
69748;SDS011;57019;52.354;6.584;2022-10-23T16:50:52;8.10;;;2.35;;
69748;SDS011;57019;52.354;6.584;2022-10-23T16:53:18;9.10;;;2.57;;
69748;SDS011;57019;52.354;6.584;2022-10-23T16:55:43;8.30;;;2.57;;
69748;SDS011;57019;52.354;6.584;2022-10-23T16:58:08;8.57;;;2.50;;
69748;SDS011;57019;52.354;6.584;2022-10-23T17:00:34;8.87;;;2.30;;
69748;SDS011;57019;52.354;6.584;2022-10-23T17:03:00;7.00;;;2.13;;